sensor_id;sensor_type;location;lat;lon;timestamp;temperature;humidity
33093;DHT22;19456;46.104;12.908;2024-02-15T00:00:20;4.70;99.90
33093;DHT22;19456;46.104;12.908;2024-02-15T00:02:46;4.50;99.90
33093;DHT22;19456;46.104;12.908;2024-02-15T00:05:12;4.60;99.90
33093;DHT22;19456;46.104;12.908;2024-02-15T00:07:38;4.70;99.90
33093;DHT22;19456;46.104;12.908;2024-02-15T00:10:04;4.90;99.90
33093;DHT22;19456;46.104;12.908;2024-02-15T00:12:29;5.10;99.90
33093;DHT22;19456;46.104;12.908;2024-02-15T00:14:55;5.30;99.90
33093;DHT22;19456;46.104;12.908;2024-02-15T00:17:24;5.50;99.90
33093;DHT22;19456;46.104;12.908;2024-02-15T00:19:49;5.80;99.90
33093;DHT22;19456;46.104;12.908;2024-02-15T00:22:15;5.90;99.90
33093;DHT22;19456;46.104;12.908;2024-02-15T00:24:40;5.90;99.90
33093;DHT22;19456;46.104;12.908;2024-02-15T00:27:08;6.00;99.90
33093;DHT22;19456;46.104;12.908;2024-02-15T00:29:33;6.00;99.90
33093;DHT22;19456;46.104;12.908;2024-02-15T00:32:00;5.90;99.90
33093;DHT22;19456;46.104;12.908;2024-02-15T00:34:25;5.80;99.90
33093;DHT22;19456;46.104;12.908;2024-02-15T00:36:52;5.70;99.90
33093;DHT22;19456;46.104;12.908;2024-02-15T00:39:17;5.70;99.90
33093;DHT22;19456;46.104;12.908;2024-02-15T00:41:43;5.70;99.90
33093;DHT22;19456;46.104;12.908;2024-02-15T00:44:10;5.60;99.90
33093;DHT22;19456;46.104;12.908;2024-02-15T00:46:36;5.50;99.90
33093;DHT22;19456;46.104;12.908;2024-02-15T00:49:02;5.40;99.90
33093;DHT22;19456;46.104;12.908;2024-02-15T00:51:35;5.40;99.90
33093;DHT22;19456;46.104;12.908;2024-02-15T00:54:02;5.40;99.90
33093;DHT22;19456;46.104;12.908;2024-02-15T00:56:29;5.40;99.90
33093;DHT22;19456;46.104;12.908;2024-02-15T00:59:01;5.50;99.90
33093;DHT22;19456;46.104;12.908;2024-02-15T01:01:26;5.50;99.90
33093;DHT22;19456;46.104;12.908;2024-02-15T01:03:52;5.40;99.90
33093;DHT22;19456;46.104;12.908;2024-02-15T01:06:17;5.50;99.90
33093;DHT22;19456;46.104;12.908;2024-02-15T01:08:44;5.50;99.90
33093;DHT22;19456;46.104;12.908;2024-02-15T01:11:09;5.60;99.90
33093;DHT22;19456;46.104;12.908;2024-02-15T01:13:35;5.60;99.90
33093;DHT22;19456;46.104;12.908;2024-02-15T01:16:00;5.60;99.90
33093;DHT22;19456;46.104;12.908;2024-02-15T01:18:29;5.60;99.90
33093;DHT22;19456;46.104;12.908;2024-02-15T01:20:57;5.40;99.90
33093;DHT22;19456;46.104;12.908;2024-02-15T01:23:22;5.30;99.90
33093;DHT22;19456;46.104;12.908;2024-02-15T01:25:48;5.40;99.90
33093;DHT22;19456;46.104;12.908;2024-02-15T01:28:14;5.30;99.90
33093;DHT22;19456;46.104;12.908;2024-02-15T01:30:40;5.30;99.90
33093;DHT22;19456;46.104;12.908;2024-02-15T01:33:09;5.30;99.90
33093;DHT22;19456;46.104;12.908;2024-02-15T01:35:36;5.50;99.90
33093;DHT22;19456;46.104;12.908;2024-02-15T01:38:01;5.60;99.90
33093;DHT22;19456;46.104;12.908;2024-02-15T01:40:27;5.70;99.90
33093;DHT22;19456;46.104;12.908;2024-02-15T01:42:52;5.70;99.90
33093;DHT22;19456;46.104;12.908;2024-02-15T01:45:18;5.70;99.90
33093;DHT22;19456;46.104;12.908;2024-02-15T01:47:44;5.70;99.90
33093;DHT22;19456;46.104;12.908;2024-02-15T01:50:10;5.50;99.90
33093;DHT22;19456;46.104;12.908;2024-02-15T01:52:37;5.40;99.90
33093;DHT22;19456;46.104;12.908;2024-02-15T01:55:03;5.30;99.90
33093;DHT22;19456;46.104;12.908;2024-02-15T01:57:34;5.50;99.90
33093;DHT22;19456;46.104;12.908;2024-02-15T02:00:00;5.60;99.90
33093;DHT22;19456;46.104;12.908;2024-02-15T02:02:28;5.70;99.90
33093;DHT22;19456;46.104;12.908;2024-02-15T02:04:56;5.80;99.90
33093;DHT22;19456;46.104;12.908;2024-02-15T02:07:22;5.80;99.90
33093;DHT22;19456;46.104;12.908;2024-02-15T02:09:47;5.90;99.90
33093;DHT22;19456;46.104;12.908;2024-02-15T02:12:14;5.90;99.90
33093;DHT22;19456;46.104;12.908;2024-02-15T02:14:40;5.90;99.90
33093;DHT22;19456;46.104;12.908;2024-02-15T02:19:39;5.90;99.90
33093;DHT22;19456;46.104;12.908;2024-02-15T02:22:04;5.80;99.90
33093;DHT22;19456;46.104;12.908;2024-02-15T02:24:31;5.70;99.90
33093;DHT22;19456;46.104;12.908;2024-02-15T02:27:03;5.60;99.90
33093;DHT22;19456;46.104;12.908;2024-02-15T02:29:30;5.50;99.90
33093;DHT22;19456;46.104;12.908;2024-02-15T02:31:57;5.40;99.90
33093;DHT22;19456;46.104;12.908;2024-02-15T02:34:22;5.40;99.90
33093;DHT22;19456;46.104;12.908;2024-02-15T02:36:48;5.50;99.90
33093;DHT22;19456;46.104;12.908;2024-02-15T02:39:15;5.60;99.90
33093;DHT22;19456;46.104;12.908;2024-02-15T02:41:41;5.50;99.90
33093;DHT22;19456;46.104;12.908;2024-02-15T02:44:08;5.50;99.90
33093;DHT22;19456;46.104;12.908;2024-02-15T02:46:33;5.50;99.90
33093;DHT22;19456;46.104;12.908;2024-02-15T02:48:59;5.50;99.90
33093;DHT22;19456;46.104;12.908;2024-02-15T02:51:24;5.60;99.90
33093;DHT22;19456;46.104;12.908;2024-02-15T02:53:50;5.60;99.90
33093;DHT22;19456;46.104;12.908;2024-02-15T02:56:15;5.70;99.90
33093;DHT22;19456;46.104;12.908;2024-02-15T02:58:41;5.80;99.90
33093;DHT22;19456;46.104;12.908;2024-02-15T03:01:08;5.90;99.90
33093;DHT22;19456;46.104;12.908;2024-02-15T03:03:33;6.00;99.90
33093;DHT22;19456;46.104;12.908;2024-02-15T03:05:59;6.00;99.90
33093;DHT22;19456;46.104;12.908;2024-02-15T03:08:24;6.00;99.90
33093;DHT22;19456;46.104;12.908;2024-02-15T03:10:50;6.10;99.90
33093;DHT22;19456;46.104;12.908;2024-02-15T03:13:17;6.10;99.90
33093;DHT22;19456;46.104;12.908;2024-02-15T03:15:45;6.10;99.90
33093;DHT22;19456;46.104;12.908;2024-02-15T03:18:14;6.10;99.90
33093;DHT22;19456;46.104;12.908;2024-02-15T03:20:40;6.20;99.90
33093;DHT22;19456;46.104;12.908;2024-02-15T03:23:05;6.30;99.90
33093;DHT22;19456;46.104;12.908;2024-02-15T03:25:31;6.30;99.90
33093;DHT22;19456;46.104;12.908;2024-02-15T03:27:57;6.30;99.90
33093;DHT22;19456;46.104;12.908;2024-02-15T03:30:24;6.30;99.90
33093;DHT22;19456;46.104;12.908;2024-02-15T03:32:50;6.30;99.90
33093;DHT22;19456;46.104;12.908;2024-02-15T03:35:16;6.40;99.90
33093;DHT22;19456;46.104;12.908;2024-02-15T03:37:42;6.30;99.90
33093;DHT22;19456;46.104;12.908;2024-02-15T03:40:08;6.30;99.90
33093;DHT22;19456;46.104;12.908;2024-02-15T03:42:36;6.30;99.90
33093;DHT22;19456;46.104;12.908;2024-02-15T03:45:03;6.20;99.90
33093;DHT22;19456;46.104;12.908;2024-02-15T03:47:29;6.20;99.90
33093;DHT22;19456;46.104;12.908;2024-02-15T03:49:54;6.20;99.90
33093;DHT22;19456;46.104;12.908;2024-02-15T03:52:21;6.30;99.90
33093;DHT22;19456;46.104;12.908;2024-02-15T03:54:47;6.30;99.90
33093;DHT22;19456;46.104;12.908;2024-02-15T03:57:12;6.20;99.90
33093;DHT22;19456;46.104;12.908;2024-02-15T03:59:38;6.30;99.90
33093;DHT22;19456;46.104;12.908;2024-02-15T04:02:06;6.30;99.90
33093;DHT22;19456;46.104;12.908;2024-02-15T04:04:38;6.30;99.90
33093;DHT22;19456;46.104;12.908;2024-02-15T04:07:07;6.20;99.90
33093;DHT22;19456;46.104;12.908;2024-02-15T04:09:33;6.00;99.90
33093;DHT22;19456;46.104;12.908;2024-02-15T04:12:01;6.00;99.90
33093;DHT22;19456;46.104;12.908;2024-02-15T04:14:27;6.00;99.90
33093;DHT22;19456;46.104;12.908;2024-02-15T04:16:53;5.90;99.90
33093;DHT22;19456;46.104;12.908;2024-02-15T04:19:18;5.90;99.90
33093;DHT22;19456;46.104;12.908;2024-02-15T04:21:47;6.00;99.90
33093;DHT22;19456;46.104;12.908;2024-02-15T04:24:13;6.00;99.90
33093;DHT22;19456;46.104;12.908;2024-02-15T04:26:39;6.00;99.90
33093;DHT22;19456;46.104;12.908;2024-02-15T04:29:05;5.90;99.90
33093;DHT22;19456;46.104;12.908;2024-02-15T04:31:34;5.80;99.90
33093;DHT22;19456;46.104;12.908;2024-02-15T04:34:02;5.80;99.90
33093;DHT22;19456;46.104;12.908;2024-02-15T04:36:30;5.70;99.90
33093;DHT22;19456;46.104;12.908;2024-02-15T04:38:59;5.60;99.90
33093;DHT22;19456;46.104;12.908;2024-02-15T04:41:26;5.60;99.90
33093;DHT22;19456;46.104;12.908;2024-02-15T04:43:52;5.60;99.90
33093;DHT22;19456;46.104;12.908;2024-02-15T04:46:18;5.50;99.90
33093;DHT22;19456;46.104;12.908;2024-02-15T04:48:47;5.40;99.90
33093;DHT22;19456;46.104;12.908;2024-02-15T04:51:15;5.30;99.90
33093;DHT22;19456;46.104;12.908;2024-02-15T04:53:41;5.30;99.90
33093;DHT22;19456;46.104;12.908;2024-02-15T04:56:07;5.30;99.90
33093;DHT22;19456;46.104;12.908;2024-02-15T04:58:39;5.50;99.90
33093;DHT22;19456;46.104;12.908;2024-02-15T05:01:16;5.50;99.90
33093;DHT22;19456;46.104;12.908;2024-02-15T05:03:42;5.50;99.90
33093;DHT22;19456;46.104;12.908;2024-02-15T05:06:08;5.50;99.90
33093;DHT22;19456;46.104;12.908;2024-02-15T05:08:34;5.60;99.90
33093;DHT22;19456;46.104;12.908;2024-02-15T05:11:07;5.70;99.90
33093;DHT22;19456;46.104;12.908;2024-02-15T05:13:38;5.70;99.90
33093;DHT22;19456;46.104;12.908;2024-02-15T05:16:04;5.80;99.90
33093;DHT22;19456;46.104;12.908;2024-02-15T05:18:31;5.80;99.90
33093;DHT22;19456;46.104;12.908;2024-02-15T05:20:56;5.90;99.90
33093;DHT22;19456;46.104;12.908;2024-02-15T05:23:22;6.10;99.90
33093;DHT22;19456;46.104;12.908;2024-02-15T05:25:48;6.20;99.90
33093;DHT22;19456;46.104;12.908;2024-02-15T05:28:13;6.40;99.90
33093;DHT22;19456;46.104;12.908;2024-02-15T05:30:39;6.50;99.90
33093;DHT22;19456;46.104;12.908;2024-02-15T05:33:04;6.50;99.90
33093;DHT22;19456;46.104;12.908;2024-02-15T05:35:30;6.30;99.90
33093;DHT22;19456;46.104;12.908;2024-02-15T05:37:56;6.20;99.90
33093;DHT22;19456;46.104;12.908;2024-02-15T05:40:22;6.30;99.90
33093;DHT22;19456;46.104;12.908;2024-02-15T05:42:47;6.40;99.90
33093;DHT22;19456;46.104;12.908;2024-02-15T05:47:54;6.30;99.90
33093;DHT22;19456;46.104;12.908;2024-02-15T05:50:20;6.20;99.90
33093;DHT22;19456;46.104;12.908;2024-02-15T05:52:47;6.20;99.90
33093;DHT22;19456;46.104;12.908;2024-02-15T05:55:13;6.20;99.90
33093;DHT22;19456;46.104;12.908;2024-02-15T05:57:45;6.00;99.90
33093;DHT22;19456;46.104;12.908;2024-02-15T06:00:11;5.90;99.90
33093;DHT22;19456;46.104;12.908;2024-02-15T06:02:36;6.00;99.90
33093;DHT22;19456;46.104;12.908;2024-02-15T06:05:03;6.00;99.90
33093;DHT22;19456;46.104;12.908;2024-02-15T06:07:30;5.90;99.90
33093;DHT22;19456;46.104;12.908;2024-02-15T06:09:59;5.90;99.90
33093;DHT22;19456;46.104;12.908;2024-02-15T06:12:29;6.00;99.90
33093;DHT22;19456;46.104;12.908;2024-02-15T06:14:54;6.00;99.90
33093;DHT22;19456;46.104;12.908;2024-02-15T06:17:20;6.10;99.90
33093;DHT22;19456;46.104;12.908;2024-02-15T06:19:46;6.10;99.90
33093;DHT22;19456;46.104;12.908;2024-02-15T06:22:11;6.20;99.90
33093;DHT22;19456;46.104;12.908;2024-02-15T06:24:40;6.30;99.90
33093;DHT22;19456;46.104;12.908;2024-02-15T06:27:07;6.40;99.90
33093;DHT22;19456;46.104;12.908;2024-02-15T06:29:32;6.30;99.90
33093;DHT22;19456;46.104;12.908;2024-02-15T06:32:16;6.30;99.90
33093;DHT22;19456;46.104;12.908;2024-02-15T06:35:00;6.30;99.90
33093;DHT22;19456;46.104;12.908;2024-02-15T06:37:45;6.30;99.90
33093;DHT22;19456;46.104;12.908;2024-02-15T06:40:33;6.30;99.90
33093;DHT22;19456;46.104;12.908;2024-02-15T06:43:01;6.20;99.90
33093;DHT22;19456;46.104;12.908;2024-02-15T06:45:27;6.30;99.90
33093;DHT22;19456;46.104;12.908;2024-02-15T06:47:55;6.30;99.90
33093;DHT22;19456;46.104;12.908;2024-02-15T06:50:30;6.40;99.90
33093;DHT22;19456;46.104;12.908;2024-02-15T06:52:56;6.50;99.90
33093;DHT22;19456;46.104;12.908;2024-02-15T06:55:22;6.50;99.90
33093;DHT22;19456;46.104;12.908;2024-02-15T06:57:48;6.50;99.90
33093;DHT22;19456;46.104;12.908;2024-02-15T07:16:16;6.90;99.90
33093;DHT22;19456;46.104;12.908;2024-02-15T07:18:41;7.00;99.90
33093;DHT22;19456;46.104;12.908;2024-02-15T07:21:09;7.00;99.90
33093;DHT22;19456;46.104;12.908;2024-02-15T07:23:53;7.10;99.90
33093;DHT22;19456;46.104;12.908;2024-02-15T07:26:25;7.00;99.90
33093;DHT22;19456;46.104;12.908;2024-02-15T07:28:54;7.00;99.90
33093;DHT22;19456;46.104;12.908;2024-02-15T07:31:20;7.20;99.90
33093;DHT22;19456;46.104;12.908;2024-02-15T07:33:50;7.20;99.90
33093;DHT22;19456;46.104;12.908;2024-02-15T07:36:19;7.10;99.90
33093;DHT22;19456;46.104;12.908;2024-02-15T07:38:47;7.10;99.90
33093;DHT22;19456;46.104;12.908;2024-02-15T07:41:17;7.10;99.90
33093;DHT22;19456;46.104;12.908;2024-02-15T07:43:43;7.10;99.90
33093;DHT22;19456;46.104;12.908;2024-02-15T07:46:13;7.10;99.90
33093;DHT22;19456;46.104;12.908;2024-02-15T07:48:47;7.10;99.90
33093;DHT22;19456;46.104;12.908;2024-02-15T07:54:23;7.30;99.90
33093;DHT22;19456;46.104;12.908;2024-02-15T07:57:00;7.40;99.90
33093;DHT22;19456;46.104;12.908;2024-02-15T07:59:36;7.60;99.90
33093;DHT22;19456;46.104;12.908;2024-02-15T08:02:14;7.70;99.90
33093;DHT22;19456;46.104;12.908;2024-02-15T08:04:53;7.90;99.90
33093;DHT22;19456;46.104;12.908;2024-02-15T08:07:20;8.10;99.90
33093;DHT22;19456;46.104;12.908;2024-02-15T08:09:49;8.40;99.90
33093;DHT22;19456;46.104;12.908;2024-02-15T08:12:21;8.50;99.90
33093;DHT22;19456;46.104;12.908;2024-02-15T08:14:47;8.70;99.90
33093;DHT22;19456;46.104;12.908;2024-02-15T08:17:13;8.80;99.90
33093;DHT22;19456;46.104;12.908;2024-02-15T08:19:39;9.00;99.90
33093;DHT22;19456;46.104;12.908;2024-02-15T08:22:08;9.10;99.90
33093;DHT22;19456;46.104;12.908;2024-02-15T08:24:40;9.30;99.90
33093;DHT22;19456;46.104;12.908;2024-02-15T08:27:09;9.40;99.90
33093;DHT22;19456;46.104;12.908;2024-02-15T08:29:36;9.50;99.90
33093;DHT22;19456;46.104;12.908;2024-02-15T08:32:24;9.60;99.90
33093;DHT22;19456;46.104;12.908;2024-02-15T08:34:55;9.70;99.90
33093;DHT22;19456;46.104;12.908;2024-02-15T08:37:22;9.70;99.90
33093;DHT22;19456;46.104;12.908;2024-02-15T08:39:47;9.80;99.90
33093;DHT22;19456;46.104;12.908;2024-02-15T08:42:17;9.80;99.90
33093;DHT22;19456;46.104;12.908;2024-02-15T08:44:47;9.80;99.90
33093;DHT22;19456;46.104;12.908;2024-02-15T08:47:17;9.90;99.90
33093;DHT22;19456;46.104;12.908;2024-02-15T08:49:43;9.90;99.90
33093;DHT22;19456;46.104;12.908;2024-02-15T08:52:17;10.00;99.90
33093;DHT22;19456;46.104;12.908;2024-02-15T08:54:43;10.00;99.90
33093;DHT22;19456;46.104;12.908;2024-02-15T08:57:15;10.10;99.90
33093;DHT22;19456;46.104;12.908;2024-02-15T08:59:41;10.20;99.90
33093;DHT22;19456;46.104;12.908;2024-02-15T09:02:09;10.20;99.90
33093;DHT22;19456;46.104;12.908;2024-02-15T09:04:38;10.30;99.90
33093;DHT22;19456;46.104;12.908;2024-02-15T09:07:11;10.40;99.90
33093;DHT22;19456;46.104;12.908;2024-02-15T09:09:36;10.50;99.90
33093;DHT22;19456;46.104;12.908;2024-02-15T09:12:05;10.50;99.90
33093;DHT22;19456;46.104;12.908;2024-02-15T09:14:38;10.50;99.90
33093;DHT22;19456;46.104;12.908;2024-02-15T09:17:04;10.60;99.90
33093;DHT22;19456;46.104;12.908;2024-02-15T09:19:35;10.60;99.90
33093;DHT22;19456;46.104;12.908;2024-02-15T09:22:10;10.70;99.90
33093;DHT22;19456;46.104;12.908;2024-02-15T09:24:41;10.70;99.90
33093;DHT22;19456;46.104;12.908;2024-02-15T09:27:07;10.80;99.90
33093;DHT22;19456;46.104;12.908;2024-02-15T09:29:33;10.70;99.90
33093;DHT22;19456;46.104;12.908;2024-02-15T09:32:00;10.80;99.90
33093;DHT22;19456;46.104;12.908;2024-02-15T09:34:34;10.80;99.90
33093;DHT22;19456;46.104;12.908;2024-02-15T09:37:00;10.70;99.90
33093;DHT22;19456;46.104;12.908;2024-02-15T09:39:25;10.60;99.90
33093;DHT22;19456;46.104;12.908;2024-02-15T09:41:53;10.70;99.90
33093;DHT22;19456;46.104;12.908;2024-02-15T09:44:24;10.80;99.90
33093;DHT22;19456;46.104;12.908;2024-02-15T09:47:05;10.70;99.90
33093;DHT22;19456;46.104;12.908;2024-02-15T09:49:37;10.80;99.90
33093;DHT22;19456;46.104;12.908;2024-02-15T09:52:08;10.70;99.90
33093;DHT22;19456;46.104;12.908;2024-02-15T09:54:45;10.80;99.90
33093;DHT22;19456;46.104;12.908;2024-02-15T09:57:23;11.00;99.90
33093;DHT22;19456;46.104;12.908;2024-02-15T09:59:58;11.00;99.90
33093;DHT22;19456;46.104;12.908;2024-02-15T10:02:28;11.10;99.90
33093;DHT22;19456;46.104;12.908;2024-02-15T10:04:56;11.10;99.90
33093;DHT22;19456;46.104;12.908;2024-02-15T10:07:22;11.20;99.90
33093;DHT22;19456;46.104;12.908;2024-02-15T10:10:03;11.30;99.90
33093;DHT22;19456;46.104;12.908;2024-02-15T10:12:37;11.30;99.90
33093;DHT22;19456;46.104;12.908;2024-02-15T10:15:06;11.40;99.90
33093;DHT22;19456;46.104;12.908;2024-02-15T10:17:33;11.40;99.90
33093;DHT22;19456;46.104;12.908;2024-02-15T10:20:06;11.40;99.90
33093;DHT22;19456;46.104;12.908;2024-02-15T10:22:35;11.40;99.90
33093;DHT22;19456;46.104;12.908;2024-02-15T10:25:20;11.60;99.90
33093;DHT22;19456;46.104;12.908;2024-02-15T10:28:01;11.50;99.90
33093;DHT22;19456;46.104;12.908;2024-02-15T10:30:31;11.50;99.90
33093;DHT22;19456;46.104;12.908;2024-02-15T10:33:27;11.70;99.90
33093;DHT22;19456;46.104;12.908;2024-02-15T10:36:13;11.90;99.90
33093;DHT22;19456;46.104;12.908;2024-02-15T10:39:17;11.90;99.90
33093;DHT22;19456;46.104;12.908;2024-02-15T10:41:55;12.00;99.90
33093;DHT22;19456;46.104;12.908;2024-02-15T10:44:42;12.00;99.90
33093;DHT22;19456;46.104;12.908;2024-02-15T10:47:12;12.10;99.90
33093;DHT22;19456;46.104;12.908;2024-02-15T10:49:46;12.30;99.90
33093;DHT22;19456;46.104;12.908;2024-02-15T10:52:12;12.30;99.90
33093;DHT22;19456;46.104;12.908;2024-02-15T10:54:47;12.40;99.90
33093;DHT22;19456;46.104;12.908;2024-02-15T11:00:21;12.50;99.90
33093;DHT22;19456;46.104;12.908;2024-02-15T11:05:19;12.40;99.90
33093;DHT22;19456;46.104;12.908;2024-02-15T11:07:49;12.60;99.90
33093;DHT22;19456;46.104;12.908;2024-02-15T11:10:14;12.80;99.90
33093;DHT22;19456;46.104;12.908;2024-02-15T11:12:42;13.10;99.90
33093;DHT22;19456;46.104;12.908;2024-02-15T11:15:09;13.10;99.90
33093;DHT22;19456;46.104;12.908;2024-02-15T11:20:09;13.40;99.90
33093;DHT22;19456;46.104;12.908;2024-02-15T11:22:36;13.50;99.90
33093;DHT22;19456;46.104;12.908;2024-02-15T11:25:10;13.90;99.90
33093;DHT22;19456;46.104;12.908;2024-02-15T11:27:55;13.90;99.90
33093;DHT22;19456;46.104;12.908;2024-02-15T11:30:31;14.20;99.90
33093;DHT22;19456;46.104;12.908;2024-02-15T11:32:57;14.70;99.90
33093;DHT22;19456;46.104;12.908;2024-02-15T11:35:24;15.10;99.90
33093;DHT22;19456;46.104;12.908;2024-02-15T11:37:51;15.70;99.90
33093;DHT22;19456;46.104;12.908;2024-02-15T11:53:31;18.00;99.90
33093;DHT22;19456;46.104;12.908;2024-02-15T12:09:15;18.60;99.90
33093;DHT22;19456;46.104;12.908;2024-02-15T12:15:07;19.40;99.90
33093;DHT22;19456;46.104;12.908;2024-02-15T12:17:52;19.40;99.90
33093;DHT22;19456;46.104;12.908;2024-02-15T12:20:39;19.50;99.90
33093;DHT22;19456;46.104;12.908;2024-02-15T12:26:40;20.30;99.90
33093;DHT22;19456;46.104;12.908;2024-02-15T12:32:38;19.60;99.90
33093;DHT22;19456;46.104;12.908;2024-02-15T13:38:58;20.80;91.00
33093;DHT22;19456;46.104;12.908;2024-02-15T13:41:25;20.50;91.80
33093;DHT22;19456;46.104;12.908;2024-02-15T13:43:50;20.40;91.90
33093;DHT22;19456;46.104;12.908;2024-02-15T13:46:16;20.10;92.10
33093;DHT22;19456;46.104;12.908;2024-02-15T13:48:55;20.30;92.70
33093;DHT22;19456;46.104;12.908;2024-02-15T13:51:21;20.90;92.10
33093;DHT22;19456;46.104;12.908;2024-02-15T13:53:53;20.80;91.10
33093;DHT22;19456;46.104;12.908;2024-02-15T13:56:42;20.80;91.80
33093;DHT22;19456;46.104;12.908;2024-02-15T13:59:26;20.70;91.40
33093;DHT22;19456;46.104;12.908;2024-02-15T14:02:00;21.00;91.10
33093;DHT22;19456;46.104;12.908;2024-02-15T14:04:31;21.00;91.20
33093;DHT22;19456;46.104;12.908;2024-02-15T14:06:59;21.00;91.10
33093;DHT22;19456;46.104;12.908;2024-02-15T14:09:25;20.30;91.10
33093;DHT22;19456;46.104;12.908;2024-02-15T14:11:51;20.60;92.20
33093;DHT22;19456;46.104;12.908;2024-02-15T14:14:17;20.40;91.40
33093;DHT22;19456;46.104;12.908;2024-02-15T14:16:43;20.20;91.60
33093;DHT22;19456;46.104;12.908;2024-02-15T14:19:09;20.20;92.00
33093;DHT22;19456;46.104;12.908;2024-02-15T14:21:34;20.80;91.60
33093;DHT22;19456;46.104;12.908;2024-02-15T14:24:04;20.80;91.50
33093;DHT22;19456;46.104;12.908;2024-02-15T14:26:32;20.30;91.50
33093;DHT22;19456;46.104;12.908;2024-02-15T14:28:57;20.60;91.60
33093;DHT22;19456;46.104;12.908;2024-02-15T14:31:23;20.50;91.70
33093;DHT22;19456;46.104;12.908;2024-02-15T14:34:07;20.30;91.70
33093;DHT22;19456;46.104;12.908;2024-02-15T14:36:36;20.40;92.10
33093;DHT22;19456;46.104;12.908;2024-02-15T14:39:03;20.20;91.80
33093;DHT22;19456;46.104;12.908;2024-02-15T14:41:31;19.90;91.70
33093;DHT22;19456;46.104;12.908;2024-02-15T14:43:58;19.50;92.50
33093;DHT22;19456;46.104;12.908;2024-02-15T14:46:29;19.30;92.90
33093;DHT22;19456;46.104;12.908;2024-02-15T14:48:56;19.30;92.80
33093;DHT22;19456;46.104;12.908;2024-02-15T14:51:23;19.30;92.60
33093;DHT22;19456;46.104;12.908;2024-02-15T14:53:48;19.00;92.80
33093;DHT22;19456;46.104;12.908;2024-02-15T14:56:14;18.90;93.20
33093;DHT22;19456;46.104;12.908;2024-02-15T14:58:41;18.50;94.40
33093;DHT22;19456;46.104;12.908;2024-02-15T15:01:08;18.00;94.80
33093;DHT22;19456;46.104;12.908;2024-02-15T15:03:34;17.70;95.50
33093;DHT22;19456;46.104;12.908;2024-02-15T15:06:07;18.00;95.50
33093;DHT22;19456;46.104;12.908;2024-02-15T15:08:51;18.40;95.20
33093;DHT22;19456;46.104;12.908;2024-02-15T15:11:35;18.70;94.60
33093;DHT22;19456;46.104;12.908;2024-02-15T15:14:19;19.60;93.70
33093;DHT22;19456;46.104;12.908;2024-02-15T15:16:45;19.40;93.30
33093;DHT22;19456;46.104;12.908;2024-02-15T15:19:10;19.00;93.60
33093;DHT22;19456;46.104;12.908;2024-02-15T15:21:36;18.20;94.80
33093;DHT22;19456;46.104;12.908;2024-02-15T15:24:02;17.60;95.00
33093;DHT22;19456;46.104;12.908;2024-02-15T15:26:27;17.20;96.60
33093;DHT22;19456;46.104;12.908;2024-02-15T15:28:55;16.90;97.00
33093;DHT22;19456;46.104;12.908;2024-02-15T15:31:21;16.50;98.00
33093;DHT22;19456;46.104;12.908;2024-02-15T15:33:46;16.10;98.80
33093;DHT22;19456;46.104;12.908;2024-02-15T15:36:14;15.90;99.60
33093;DHT22;19456;46.104;12.908;2024-02-15T15:38:42;15.80;99.90
33093;DHT22;19456;46.104;12.908;2024-02-15T15:41:08;15.60;99.90
33093;DHT22;19456;46.104;12.908;2024-02-15T15:43:34;15.30;99.90
33093;DHT22;19456;46.104;12.908;2024-02-15T15:46:00;15.20;99.90
33093;DHT22;19456;46.104;12.908;2024-02-15T15:48:26;15.10;99.90
33093;DHT22;19456;46.104;12.908;2024-02-15T15:50:51;14.90;99.90
33093;DHT22;19456;46.104;12.908;2024-02-15T15:53:18;14.70;99.90
33093;DHT22;19456;46.104;12.908;2024-02-15T15:55:44;14.50;99.90
33093;DHT22;19456;46.104;12.908;2024-02-15T15:58:10;14.30;99.90
33093;DHT22;19456;46.104;12.908;2024-02-15T16:00:36;14.20;99.90
33093;DHT22;19456;46.104;12.908;2024-02-15T16:03:01;14.00;99.90
33093;DHT22;19456;46.104;12.908;2024-02-15T16:05:30;13.80;99.90
33093;DHT22;19456;46.104;12.908;2024-02-15T16:07:55;13.80;99.90
33093;DHT22;19456;46.104;12.908;2024-02-15T16:10:21;13.70;99.90
33093;DHT22;19456;46.104;12.908;2024-02-15T16:12:50;13.60;99.90
33093;DHT22;19456;46.104;12.908;2024-02-15T16:15:17;13.40;99.90
33093;DHT22;19456;46.104;12.908;2024-02-15T16:17:44;13.30;99.90
33093;DHT22;19456;46.104;12.908;2024-02-15T16:20:10;13.10;99.90
33093;DHT22;19456;46.104;12.908;2024-02-15T16:22:39;13.10;99.90
33093;DHT22;19456;46.104;12.908;2024-02-15T16:25:05;13.00;99.90
33093;DHT22;19456;46.104;12.908;2024-02-15T16:27:32;12.80;99.90
33093;DHT22;19456;46.104;12.908;2024-02-15T16:29:58;12.80;99.90
33093;DHT22;19456;46.104;12.908;2024-02-15T16:32:24;12.70;99.90
33093;DHT22;19456;46.104;12.908;2024-02-15T16:34:49;12.70;99.90
33093;DHT22;19456;46.104;12.908;2024-02-15T16:37:17;12.60;99.90
33093;DHT22;19456;46.104;12.908;2024-02-15T16:39:44;12.60;99.90
33093;DHT22;19456;46.104;12.908;2024-02-15T16:42:09;12.50;99.90
33093;DHT22;19456;46.104;12.908;2024-02-15T16:44:38;12.40;99.90
33093;DHT22;19456;46.104;12.908;2024-02-15T16:47:03;12.30;99.90
33093;DHT22;19456;46.104;12.908;2024-02-15T16:49:29;12.20;99.90
33093;DHT22;19456;46.104;12.908;2024-02-15T16:51:54;12.10;99.90
33093;DHT22;19456;46.104;12.908;2024-02-15T16:54:22;12.00;99.90
33093;DHT22;19456;46.104;12.908;2024-02-15T16:56:49;11.80;99.90
33093;DHT22;19456;46.104;12.908;2024-02-15T16:59:16;11.80;99.90
33093;DHT22;19456;46.104;12.908;2024-02-15T17:01:42;11.80;99.90
33093;DHT22;19456;46.104;12.908;2024-02-15T17:04:07;11.80;99.90
33093;DHT22;19456;46.104;12.908;2024-02-15T17:06:33;11.70;99.90
33093;DHT22;19456;46.104;12.908;2024-02-15T17:08:59;11.70;99.90
33093;DHT22;19456;46.104;12.908;2024-02-15T17:11:25;11.60;99.90
33093;DHT22;19456;46.104;12.908;2024-02-15T17:13:50;11.50;99.90
33093;DHT22;19456;46.104;12.908;2024-02-15T17:16:16;11.30;99.90
33093;DHT22;19456;46.104;12.908;2024-02-15T17:18:42;11.20;99.90
33093;DHT22;19456;46.104;12.908;2024-02-15T17:21:09;11.00;99.90
33093;DHT22;19456;46.104;12.908;2024-02-15T17:23:34;10.70;99.90
33093;DHT22;19456;46.104;12.908;2024-02-15T17:26:00;10.60;99.90
33093;DHT22;19456;46.104;12.908;2024-02-15T17:28:26;10.40;99.90
33093;DHT22;19456;46.104;12.908;2024-02-15T17:30:52;10.30;99.90
33093;DHT22;19456;46.104;12.908;2024-02-15T17:33:18;10.20;99.90
33093;DHT22;19456;46.104;12.908;2024-02-15T17:35:43;10.00;99.90
33093;DHT22;19456;46.104;12.908;2024-02-15T17:38:09;10.00;99.90
33093;DHT22;19456;46.104;12.908;2024-02-15T17:40:36;10.00;99.90
33093;DHT22;19456;46.104;12.908;2024-02-15T17:43:03;9.90;99.90
33093;DHT22;19456;46.104;12.908;2024-02-15T17:45:28;10.00;99.90